Overview Statistics Trail Chart Weather Telemetry Raw packets
 

This is the latest recevied weather packets stored in our database for station/object G0TQM-11. If no packets are shown the sender has not sent any weather packets the latest 10 day(s).

<< 9 10 11 12 13 14 15 >>
Time Temp. Humidity Pressure Rain* Wind** Luminosity Snow
1788378109 22.78° C 57% 1008.7 hPa - - - -
1788376916 22.78° C 57% 1008.9 hPa - - - -
1788375716 23.33° C 56% 1008.6 hPa - - - -
1788374516 23.33° C 56% 1008.6 hPa - - - -
1788373315 23.33° C 55% 1008.5 hPa - - - -
1788372115 24.44° C 53% 1008.4 hPa - - - -
1788370915 24.44° C 54% 1008.4 hPa - - - -
1788369715 25° C 52% 1008.4 hPa - - - -
1788368515 25° C 52% 1008.4 hPa - - - -
1788367315 25° C 52% 1008.5 hPa - - - -
1788366114 25° C 51% 1008.7 hPa - - - -
1788364914 25.56° C 50% 1008.6 hPa - - - -
1788363714 26.11° C 48% 1008.6 hPa - - - -
1788362514 26.11° C 48% 1008.6 hPa - - - -
1788361314 26.11° C 49% 1008.8 hPa - - - -
1788360114 26.67° C 46% 1008.7 hPa - - - -
1788358913 27.22° C 45% 1008.9 hPa - - - -
1788357713 26.11° C 47% 1008.9 hPa - - - -
1788356513 25.56° C 48% 1009.1 hPa - - - -
1788355313 26.11° C 46% 1009.4 hPa - - - -
1788354113 26.11° C 46% 1009.7 hPa - - - -
1788352913 25.56° C 47% 1009.8 hPa - - - -
1788351713 25° C 48% 1010.1 hPa - - - -
1788350512 25° C 48% 1010.1 hPa - - - -
1788349312 25° C 49% 1010.4 hPa - - - -

* Rain since midnight (hover to see other rain measurements)
** Current wind speed in m/s (hover to see current wind gust speed)